createdAt,value
2023-02-22T00:01:28.642Z,4.35
2023-02-22T00:03:58.506Z,4.30
2023-02-22T00:06:29.599Z,4.40
2023-02-22T00:08:59.420Z,4.22
2023-02-22T00:11:28.618Z,4.35
2023-02-22T00:13:57.806Z,3.25
2023-02-22T00:16:28.287Z,3.73
2023-02-22T00:18:57.382Z,5.00
2023-02-22T00:21:27.774Z,3.97
2023-02-22T00:23:56.848Z,4.45
2023-02-22T00:26:26.013Z,6.22
2023-02-22T00:28:56.526Z,3.50
2023-02-22T00:31:26.587Z,3.65
2023-02-22T00:33:55.653Z,3.63
2023-02-22T00:36:49.512Z,5.28
2023-02-22T00:39:18.883Z,5.97
2023-02-22T00:41:48.130Z,3.83
2023-02-22T00:44:17.258Z,3.53
2023-02-22T00:46:47.686Z,4.78
2023-02-22T00:49:17.408Z,5.25
2023-02-22T00:51:46.779Z,5.13
2023-02-22T00:54:20.118Z,4.60
2023-02-22T00:56:50.582Z,5.20
2023-02-22T00:59:20.152Z,4.88
2023-02-22T01:01:49.238Z,4.07
2023-02-22T01:04:18.802Z,6.03
2023-02-22T01:06:47.908Z,4.80
2023-02-22T01:09:18.331Z,5.35
2023-02-22T01:11:47.687Z,5.07
2023-02-22T01:14:18.271Z,4.47
2023-02-22T01:16:47.385Z,5.32
2023-02-22T01:19:16.534Z,5.25
2023-02-22T01:21:45.558Z,4.40
2023-02-22T01:24:16.277Z,5.57
2023-02-22T01:26:51.348Z,4.85
2023-02-22T01:29:22.361Z,4.78
2023-02-22T01:31:56.684Z,5.50
2023-02-22T01:34:26.962Z,4.93
2023-02-22T01:36:56.619Z,3.38
2023-02-22T01:39:26.006Z,4.20
2023-02-22T01:41:56.934Z,3.35
2023-02-22T01:44:30.285Z,4.55
2023-02-22T01:47:03.463Z,3.50
2023-02-22T01:49:36.719Z,4.72
2023-02-22T01:52:09.804Z,5.22
2023-02-22T01:54:43.203Z,5.65
2023-02-22T01:57:19.247Z,4.68
2023-02-22T01:59:52.415Z,4.45
2023-02-22T02:02:25.273Z,4.00
2023-02-22T02:04:57.721Z,5.90
2023-02-22T02:07:29.673Z,5.35
2023-02-22T02:10:01.051Z,5.28
2023-02-22T02:12:35.860Z,5.60
2023-02-22T02:15:20.321Z,4.90
2023-02-22T02:17:50.414Z,4.78
2023-02-22T02:20:25.697Z,3.13
2023-02-22T02:23:00.983Z,4.72
2023-02-22T02:26:10.423Z,4.43
2023-02-22T02:29:22.153Z,4.75
2023-02-22T02:32:15.627Z,6.15
2023-02-22T02:34:56.260Z,4.72
2023-02-22T02:37:35.083Z,3.85
2023-02-22T02:40:17.994Z,5.90
2023-02-22T02:42:54.929Z,4.50
2023-02-22T02:45:30.933Z,3.92
2023-02-22T02:48:03.907Z,4.80
2023-02-22T02:50:38.166Z,4.00
2023-02-22T02:53:10.043Z,4.88
2023-02-22T02:55:39.765Z,5.60
2023-02-22T02:58:10.188Z,4.28
2023-02-22T03:00:43.237Z,4.20
2023-02-22T03:03:43.788Z,6.05
2023-02-22T03:06:29.573Z,4.32
2023-02-22T03:09:06.444Z,4.43
2023-02-22T03:11:44.876Z,6.78
2023-02-22T03:14:23.531Z,5.45
2023-02-22T03:16:59.742Z,4.82
2023-02-22T03:19:38.567Z,4.35
2023-02-22T03:22:15.460Z,3.75
2023-02-22T03:24:56.013Z,4.05
2023-02-22T03:27:30.284Z,4.47
2023-02-22T03:30:06.953Z,4.78
2023-02-22T03:32:42.718Z,4.03
2023-02-22T03:35:19.813Z,5.18
2023-02-22T03:37:54.836Z,4.38
2023-02-22T03:40:28.865Z,3.42
2023-02-22T03:43:03.683Z,3.90
2023-02-22T03:45:36.390Z,5.28
2023-02-22T03:48:12.780Z,4.25
2023-02-22T03:50:43.842Z,5.30
2023-02-22T03:53:13.426Z,5.43
2023-02-22T03:55:44.290Z,5.40
2023-02-22T03:58:15.250Z,4.55
2023-02-22T04:00:44.803Z,5.88
2023-02-22T04:03:14.139Z,4.35
2023-02-22T04:05:45.307Z,4.00
2023-02-22T04:08:14.870Z,4.95
2023-02-22T04:10:44.021Z,4.22
2023-02-22T04:13:14.804Z,5.68
2023-02-22T04:15:48.558Z,5.32
2023-02-22T04:18:17.931Z,5.10
2023-02-22T04:20:50.169Z,6.63
2023-02-22T04:23:42.402Z,4.90
2023-02-22T04:26:13.125Z,5.72
2023-02-22T04:28:42.376Z,5.60
2023-02-22T04:31:15.626Z,5.97
2023-02-22T04:33:45.862Z,6.15
2023-02-22T04:36:19.974Z,5.55
2023-02-22T04:38:49.381Z,4.47
2023-02-22T04:41:20.102Z,5.57
2023-02-22T04:43:49.599Z,5.32
2023-02-22T04:46:22.971Z,4.15
2023-02-22T04:48:52.397Z,5.45
2023-02-22T04:51:27.842Z,5.85
2023-02-22T04:54:01.551Z,6.35
2023-02-22T04:56:31.918Z,6.88
2023-02-22T04:59:01.978Z,4.93
2023-02-22T05:01:34.160Z,7.60
2023-02-22T05:04:04.529Z,9.88
2023-02-22T05:06:35.272Z,5.65
2023-02-22T05:09:05.174Z,5.90
2023-02-22T05:11:34.698Z,7.65
2023-02-22T05:14:03.810Z,5.53
2023-02-22T05:16:33.249Z,5.47
2023-02-22T05:19:03.026Z,6.93
2023-02-22T05:21:33.662Z,6.78
2023-02-22T05:24:02.826Z,6.60
2023-02-22T05:26:31.957Z,8.57
2023-02-22T05:29:01.200Z,5.97
2023-02-22T05:31:30.493Z,5.63
2023-02-22T05:33:59.751Z,7.78
2023-02-22T05:36:29.033Z,5.72
2023-02-22T05:38:59.681Z,4.93
2023-02-22T05:41:29.864Z,4.78
2023-02-22T05:43:59.311Z,6.75
2023-02-22T05:46:28.500Z,4.43
2023-02-22T05:48:57.692Z,4.82
2023-02-22T05:51:27.132Z,5.32
2023-02-22T05:53:56.277Z,4.88
2023-02-22T05:56:30.312Z,5.50
2023-02-22T05:59:00.211Z,3.60
2023-02-22T06:01:29.781Z,7.78
2023-02-22T06:03:59.064Z,6.10
2023-02-22T06:07:42.203Z,6.13
2023-02-22T06:10:11.572Z,3.72
2023-02-22T06:12:42.700Z,5.00
2023-02-22T06:15:12.061Z,5.70
2023-02-22T06:17:41.983Z,4.38
2023-02-22T06:20:12.502Z,4.70
2023-02-22T06:22:42.388Z,5.13
2023-02-22T06:25:14.802Z,4.18
2023-02-22T06:27:45.583Z,6.18
2023-02-22T06:30:16.603Z,6.35
2023-02-22T06:32:56.163Z,7.28
2023-02-22T06:35:25.441Z,5.82
2023-02-22T06:37:55.089Z,5.63
2023-02-22T06:40:24.530Z,6.95
2023-02-22T06:42:55.099Z,6.45
2023-02-22T06:45:24.608Z,5.03
2023-02-22T06:47:53.869Z,6.15
2023-02-22T06:50:26.238Z,4.63
2023-02-22T06:52:55.563Z,4.88
2023-02-22T06:55:50.381Z,4.07
2023-02-22T06:58:20.990Z,6.03
2023-02-22T07:00:50.303Z,5.18
2023-02-22T07:03:19.858Z,4.60
2023-02-22T07:05:49.149Z,5.40
2023-02-22T07:08:18.764Z,4.28
2023-02-22T07:10:50.769Z,5.38
2023-02-22T07:13:21.399Z,5.25
2023-02-22T07:15:50.753Z,6.07
2023-02-22T07:18:19.965Z,5.00
2023-02-22T07:20:49.257Z,5.20
2023-02-22T07:23:19.415Z,5.88
2023-02-22T07:25:48.851Z,5.50
2023-02-22T07:28:18.396Z,7.53
2023-02-22T07:30:49.396Z,6.30
2023-02-22T07:33:18.859Z,5.78
2023-02-22T07:35:53.071Z,7.00
2023-02-22T07:38:22.563Z,6.03
2023-02-22T07:40:51.976Z,7.40
2023-02-22T07:43:22.987Z,6.15
2023-02-22T07:45:57.192Z,4.93
2023-02-22T07:48:28.920Z,6.70
2023-02-22T07:50:58.562Z,5.70
2023-02-22T07:53:30.413Z,6.40
2023-02-22T07:56:01.768Z,5.87
2023-02-22T07:58:34.035Z,7.60
2023-02-22T08:01:04.777Z,6.30
2023-02-22T08:03:37.033Z,7.97
2023-02-22T08:06:08.570Z,7.72
2023-02-22T08:08:38.135Z,7.77
2023-02-22T08:11:08.380Z,7.47
2023-02-22T08:13:38.409Z,8.10
2023-02-22T08:16:09.321Z,9.35
2023-02-22T08:18:39.759Z,8.73
2023-02-22T08:21:09.376Z,8.65
2023-02-22T08:23:38.979Z,8.30
2023-02-22T08:26:10.413Z,12.13
2023-02-22T08:28:39.625Z,6.70
2023-02-22T08:31:10.841Z,8.70
2023-02-22T08:33:40.050Z,8.17
2023-02-22T08:36:10.538Z,7.00
2023-02-22T08:38:39.903Z,6.77
2023-02-22T08:41:09.160Z,6.23
2023-02-22T08:43:39.450Z,6.77
2023-02-22T08:46:10.235Z,5.53
2023-02-22T08:48:40.014Z,8.00
2023-02-22T08:51:10.065Z,6.40
2023-02-22T08:53:39.683Z,5.67
2023-02-22T08:56:09.180Z,7.50
2023-02-22T08:58:41.185Z,6.77
2023-02-22T09:01:12.912Z,5.73
2023-02-22T09:03:51.193Z,4.90
2023-02-22T09:06:52.057Z,6.20
2023-02-22T09:09:22.173Z,4.80
2023-02-22T09:11:53.122Z,6.03
2023-02-22T09:14:22.848Z,5.27
2023-02-22T09:16:53.782Z,3.90
2023-02-22T09:19:23.123Z,5.60
2023-02-22T09:21:55.617Z,7.43
2023-02-22T09:24:25.789Z,4.60
2023-02-22T09:26:55.460Z,6.77
2023-02-22T09:29:51.043Z,6.33
2023-02-22T09:32:21.934Z,6.10
2023-02-22T09:34:52.766Z,5.07
2023-02-22T09:37:22.237Z,4.77
2023-02-22T09:39:53.945Z,4.87
2023-02-22T09:42:31.763Z,8.00
2023-02-22T09:45:06.371Z,3.93
2023-02-22T09:47:45.770Z,5.70
2023-02-22T09:50:17.510Z,6.10
2023-02-22T09:52:56.929Z,4.40
2023-02-22T09:55:35.481Z,6.80
2023-02-22T09:58:11.822Z,5.47
2023-02-22T10:00:44.031Z,5.47
2023-02-22T10:03:24.632Z,4.03
2023-02-22T10:06:12.068Z,5.10
2023-02-22T10:08:43.413Z,4.93
2023-02-22T10:11:21.640Z,6.60
2023-02-22T10:14:01.490Z,4.67
2023-02-22T10:16:37.766Z,5.30
2023-02-22T10:19:27.939Z,5.40
2023-02-22T10:22:19.887Z,5.20
2023-02-22T10:25:41.488Z,6.10
2023-02-22T10:28:17.968Z,4.43
2023-02-22T10:30:54.999Z,5.67
2023-02-22T10:33:28.055Z,4.27
2023-02-22T10:35:59.324Z,5.20
2023-02-22T10:38:31.118Z,5.10
2023-02-22T10:41:04.898Z,3.30
2023-02-22T10:43:34.371Z,3.43
2023-02-22T10:46:08.375Z,5.47
2023-02-22T10:48:40.164Z,3.63
2023-02-22T10:51:12.077Z,3.53
2023-02-22T10:53:41.461Z,3.53
2023-02-22T10:56:21.445Z,3.90
2023-02-22T10:58:55.075Z,4.73
2023-02-22T11:01:37.778Z,3.87
2023-02-22T11:04:13.105Z,4.30
2023-02-22T11:06:45.913Z,4.40
2023-02-22T11:09:18.046Z,6.50
2023-02-22T11:11:48.868Z,4.00
2023-02-22T11:14:32.304Z,4.90
2023-02-22T11:17:08.118Z,4.27
2023-02-22T11:19:38.548Z,3.70
2023-02-22T11:22:16.090Z,3.40
2023-02-22T11:24:51.970Z,4.47
2023-02-22T11:27:31.813Z,3.27
2023-02-22T11:30:20.805Z,7.07
2023-02-22T11:32:54.725Z,3.47
2023-02-22T11:40:12.217Z,4.27
2023-02-22T11:42:41.557Z,5.90
2023-02-22T11:45:13.637Z,5.07
2023-02-22T11:47:55.630Z,3.97
2023-02-22T11:50:34.999Z,7.13
2023-02-22T11:53:28.295Z,4.97
2023-02-22T11:56:17.338Z,4.80
2023-02-22T11:58:53.213Z,4.40
2023-02-22T12:01:30.195Z,5.60
2023-02-22T12:04:39.407Z,4.43
2023-02-22T12:07:45.262Z,4.73
2023-02-22T12:10:28.109Z,4.57
2023-02-22T12:13:13.515Z,4.47
2023-02-22T12:15:53.048Z,4.60
2023-02-22T12:18:31.550Z,3.60
2023-02-22T12:21:06.112Z,3.50
2023-02-22T12:23:44.987Z,5.83
2023-02-22T12:26:30.664Z,4.53
2023-02-22T12:29:07.480Z,4.03
2023-02-22T12:31:40.930Z,4.10
2023-02-22T12:34:20.019Z,4.03
2023-02-22T12:36:53.068Z,3.17
2023-02-22T12:39:52.153Z,3.93
2023-02-22T12:42:29.453Z,5.40
2023-02-22T12:45:08.275Z,3.63
2023-02-22T12:48:29.016Z,4.57
2023-02-22T12:51:04.840Z,3.10
2023-02-22T12:53:37.181Z,3.40
2023-02-22T12:56:21.428Z,4.10
2023-02-22T12:58:56.834Z,3.40
2023-02-22T13:01:34.179Z,3.60
2023-02-22T13:04:19.475Z,3.57
2023-02-22T13:07:01.225Z,3.33
2023-02-22T13:10:00.845Z,3.80
2023-02-22T13:12:40.780Z,3.80
2023-02-22T13:15:17.652Z,6.13
2023-02-22T13:18:01.283Z,3.77
2023-02-22T13:20:35.964Z,2.93
2023-02-22T13:23:12.369Z,3.47
2023-02-22T13:25:46.920Z,2.80
2023-02-22T13:28:23.807Z,3.57
2023-02-22T13:31:09.073Z,3.10
2023-02-22T13:33:55.211Z,2.90
2023-02-22T13:36:37.697Z,4.00
2023-02-22T13:39:42.393Z,4.23
2023-02-22T13:42:38.339Z,3.00
2023-02-22T13:45:41.367Z,4.10
2023-02-22T13:48:42.103Z,3.17
2023-02-22T13:51:25.114Z,7.40
2023-02-22T13:53:57.780Z,3.90
2023-02-22T13:56:27.940Z,4.63
2023-02-22T13:58:59.731Z,4.87
2023-02-22T14:01:47.740Z,3.47
2023-02-22T14:04:39.819Z,2.83
2023-02-22T14:07:54.826Z,3.43
2023-02-22T14:10:50.183Z,3.30
2023-02-22T14:13:22.699Z,3.53
2023-02-22T14:16:21.391Z,2.57
2023-02-22T14:19:02.368Z,2.93
2023-02-22T14:21:35.123Z,2.37
2023-02-22T14:24:13.924Z,2.27
2023-02-22T14:26:54.959Z,2.90
2023-02-22T14:30:19.718Z,2.20
2023-02-22T14:32:49.313Z,3.37
2023-02-22T14:35:28.829Z,3.23
2023-02-22T14:38:04.273Z,2.70
2023-02-22T14:40:36.322Z,3.13
2023-02-22T14:43:09.705Z,3.37
2023-02-22T14:45:45.713Z,3.47
2023-02-22T14:48:25.186Z,4.13
2023-02-22T14:50:57.641Z,2.60
2023-02-22T14:53:35.040Z,4.37
2023-02-22T14:56:07.847Z,3.13
2023-02-22T14:58:45.459Z,3.00
2023-02-22T15:01:49.053Z,2.83
2023-02-22T15:04:52.638Z,3.27
2023-02-22T15:07:29.978Z,3.00
2023-02-22T15:10:24.033Z,4.60
2023-02-22T15:12:59.136Z,4.23
2023-02-22T15:15:28.445Z,4.40
2023-02-22T15:17:58.962Z,3.00
2023-02-22T15:20:30.142Z,3.10
2023-02-22T15:23:01.470Z,4.23
2023-02-22T15:25:33.383Z,3.17
2023-02-22T15:28:04.644Z,3.50
2023-02-22T15:30:35.185Z,3.10
2023-02-22T15:33:17.584Z,5.37
2023-02-22T15:35:54.313Z,3.97
2023-02-22T15:38:28.766Z,3.10
2023-02-22T15:41:05.175Z,3.47
2023-02-22T15:43:34.773Z,4.27
2023-02-22T15:46:06.926Z,3.50
2023-02-22T15:48:37.400Z,4.20
2023-02-22T15:51:10.844Z,3.20
2023-02-22T15:53:45.982Z,5.43
2023-02-22T15:56:19.965Z,3.50
2023-02-22T15:58:49.860Z,3.60
2023-02-22T16:01:21.599Z,4.03
2023-02-22T16:03:53.291Z,3.43
2023-02-22T16:06:30.236Z,3.50
2023-02-22T16:09:02.446Z,5.43
2023-02-22T16:11:35.574Z,2.90
2023-02-22T16:14:08.940Z,3.07
2023-02-22T16:16:41.774Z,3.93
2023-02-22T16:19:34.753Z,3.87
2023-02-22T16:22:13.291Z,3.80
2023-02-22T16:24:42.836Z,4.00
2023-02-22T16:27:22.264Z,3.15
2023-02-22T16:30:23.277Z,4.35
2023-02-22T16:32:54.326Z,4.37
2023-02-22T16:35:28.889Z,3.20
2023-02-22T16:38:01.741Z,3.63
2023-02-22T16:40:34.714Z,3.40
2023-02-22T16:43:08.984Z,4.30
2023-02-22T16:45:39.257Z,4.53
2023-02-22T16:48:16.857Z,4.65
2023-02-22T16:50:46.157Z,3.90
2023-02-22T16:53:20.145Z,5.67
2023-02-22T16:55:50.521Z,3.95
2023-02-22T16:58:21.639Z,5.85
2023-02-22T17:00:50.897Z,8.20
2023-02-22T17:03:21.931Z,4.05
2023-02-22T17:05:51.212Z,4.03
2023-02-22T17:08:26.904Z,4.22
2023-02-22T17:10:58.952Z,3.40
2023-02-22T17:13:30.650Z,3.42
2023-02-22T17:16:17.618Z,4.38
2023-02-22T17:18:47.201Z,3.47
2023-02-22T17:21:19.521Z,3.67
2023-02-22T17:23:49.245Z,5.10
2023-02-22T17:26:28.693Z,4.32
2023-02-22T17:28:59.348Z,4.50
2023-02-22T17:31:30.523Z,3.67
2023-02-22T17:34:07.691Z,4.07
2023-02-22T17:36:37.768Z,3.67
2023-02-22T17:39:10.679Z,4.00
2023-02-22T17:42:07.680Z,5.22
2023-02-22T17:44:38.406Z,4.43
2023-02-22T17:47:08.001Z,4.00
2023-02-22T17:49:37.198Z,3.97
2023-02-22T17:52:06.829Z,4.22
2023-02-22T17:54:35.956Z,3.67
2023-02-22T17:57:05.169Z,4.45
2023-02-22T17:59:34.454Z,4.30
2023-02-22T18:02:05.469Z,2.80
2023-02-22T18:04:36.951Z,3.72
2023-02-22T18:07:06.332Z,4.38
2023-02-22T18:09:36.868Z,3.75
2023-02-22T18:12:06.428Z,4.22
2023-02-22T18:14:38.654Z,4.72
2023-02-22T18:17:09.345Z,3.95
2023-02-22T18:19:38.900Z,4.05
2023-02-22T18:22:09.782Z,2.80
2023-02-22T18:24:39.134Z,4.43
2023-02-22T18:27:12.051Z,3.42
2023-02-22T18:29:41.312Z,4.22
2023-02-22T18:32:13.677Z,4.43
2023-02-22T18:34:42.917Z,4.93
2023-02-22T18:37:12.179Z,4.40
2023-02-22T18:39:44.943Z,3.63
2023-02-22T18:42:21.774Z,3.83
2023-02-22T18:45:07.992Z,3.92
2023-02-22T18:47:46.925Z,4.72
2023-02-22T18:50:22.425Z,4.57
2023-02-22T18:52:56.659Z,4.40
2023-02-22T18:55:26.579Z,4.78
2023-02-22T18:58:01.107Z,4.28
2023-02-22T19:00:51.508Z,3.90
2023-02-22T19:03:36.809Z,3.67
2023-02-22T19:06:17.521Z,4.22
2023-02-22T19:09:08.800Z,3.50
2023-02-22T19:11:47.343Z,4.13
2023-02-22T19:14:37.171Z,3.88
2023-02-22T19:17:14.743Z,4.78
2023-02-22T19:19:55.050Z,4.70
2023-02-22T19:22:33.136Z,4.55
2023-02-22T19:25:04.708Z,4.80
2023-02-22T19:27:36.122Z,4.30
2023-02-22T19:32:47.988Z,3.88
2023-02-22T19:35:27.695Z,3.38
2023-02-22T19:37:58.624Z,4.15
2023-02-22T19:41:01.451Z,3.72
2023-02-22T19:43:33.945Z,4.43
2023-02-22T19:46:06.477Z,4.72
2023-02-22T19:48:36.115Z,4.60
2023-02-22T19:51:09.382Z,3.65
2023-02-22T19:53:40.457Z,3.40
2023-02-22T19:56:10.818Z,3.75
2023-02-22T19:58:41.155Z,4.85
2023-02-22T20:01:55.871Z,4.43
2023-02-22T20:05:48.875Z,4.30
2023-02-22T20:08:31.789Z,6.00
2023-02-22T20:11:07.317Z,5.10
2023-02-22T20:13:45.316Z,4.75
2023-02-22T20:16:19.773Z,4.47
2023-02-22T20:19:09.741Z,4.07
2023-02-22T20:22:09.289Z,5.00
2023-02-22T20:24:43.940Z,3.40
2023-02-22T20:27:19.157Z,4.60
2023-02-22T20:30:15.236Z,4.47
2023-02-22T20:32:52.385Z,4.35
2023-02-22T20:35:31.598Z,4.40
2023-02-22T20:38:01.536Z,4.68
2023-02-22T20:40:33.032Z,5.70
2023-02-22T20:43:02.603Z,4.95
2023-02-22T20:45:39.090Z,5.28
2023-02-22T20:48:09.400Z,4.63
2023-02-22T20:50:49.398Z,5.30
2023-02-22T20:53:21.690Z,7.75
2023-02-22T20:55:53.661Z,4.78
2023-02-22T20:58:23.166Z,5.43
2023-02-22T21:00:54.517Z,6.20
2023-02-22T21:03:27.668Z,4.40
2023-02-22T21:05:59.162Z,5.47
2023-02-22T21:08:28.614Z,5.55
2023-02-22T21:11:12.657Z,6.65
2023-02-22T21:13:46.065Z,4.82
2023-02-22T21:16:22.308Z,5.95
2023-02-22T21:18:53.013Z,5.45
2023-02-22T21:21:26.047Z,5.93
2023-02-22T21:24:08.910Z,5.93
2023-02-22T21:26:39.388Z,5.50
2023-02-22T21:29:08.957Z,5.22
2023-02-22T21:31:40.738Z,6.40
2023-02-22T21:34:13.675Z,5.53
2023-02-22T21:36:51.066Z,5.10
2023-02-22T21:39:28.916Z,6.00
2023-02-22T21:42:01.309Z,7.88
2023-02-22T21:44:30.661Z,5.65
2023-02-22T21:47:00.269Z,7.10
2023-02-22T21:49:29.564Z,7.22
2023-02-22T21:51:58.840Z,6.35
2023-02-22T21:54:28.965Z,8.00
2023-02-22T21:57:00.007Z,7.70
2023-02-22T21:59:29.273Z,8.50
2023-02-22T22:01:58.730Z,7.90
2023-02-22T22:04:29.707Z,7.47
2023-02-22T22:07:00.255Z,7.90
2023-02-22T22:09:33.299Z,7.93
2023-02-22T22:12:05.624Z,8.40
2023-02-22T22:14:36.033Z,6.70
2023-02-22T22:17:09.054Z,7.53
2023-02-22T22:19:44.611Z,9.00
2023-02-22T22:22:18.354Z,9.82
2023-02-22T22:24:54.488Z,9.13
2023-02-22T22:27:32.850Z,8.77
2023-02-22T22:30:02.940Z,9.27
2023-02-22T22:32:32.678Z,8.30
2023-02-22T22:35:02.137Z,8.85
2023-02-22T22:37:31.930Z,8.93
2023-02-22T22:40:01.792Z,9.38
2023-02-22T22:42:32.666Z,9.07
2023-02-22T22:45:03.320Z,9.38
2023-02-22T22:47:32.461Z,9.90
2023-02-22T22:50:01.710Z,10.05
2023-02-22T22:52:35.310Z,8.25
2023-02-22T22:55:07.231Z,8.10
2023-02-22T22:57:37.879Z,9.38
2023-02-22T23:00:26.927Z,8.48
2023-02-22T23:02:59.864Z,9.80
2023-02-22T23:05:30.126Z,9.70
2023-02-22T23:08:04.783Z,13.38
2023-02-22T23:10:39.321Z,10.63
2023-02-22T23:13:12.632Z,11.43
2023-02-22T23:15:44.039Z,11.18
2023-02-22T23:18:14.779Z,11.35
2023-02-22T23:20:44.641Z,12.18
2023-02-22T23:23:14.865Z,11.45
2023-02-22T23:25:50.581Z,10.77
2023-02-22T23:28:23.851Z,10.80
2023-02-22T23:30:53.237Z,11.02
2023-02-22T23:33:22.369Z,11.00
2023-02-22T23:35:51.537Z,12.32
2023-02-22T23:38:20.690Z,12.90
2023-02-22T23:40:54.052Z,12.63
2023-02-22T23:43:25.823Z,12.90
2023-02-22T23:45:57.256Z,12.45
2023-02-22T23:48:30.976Z,12.40
2023-02-22T23:51:11.085Z,12.43
2023-02-22T23:53:47.070Z,12.38
2023-02-22T23:56:18.685Z,12.18
2023-02-22T23:58:50.789Z,14.85
